createdAt,value
2022-11-25T00:01:29.310Z,100504.09
2022-11-25T00:03:57.019Z,100491.59
2022-11-25T00:06:26.190Z,100493.25
2022-11-25T00:08:58.260Z,100491.31
2022-11-25T00:11:25.151Z,100486.81
2022-11-25T00:13:51.681Z,100491.00
2022-11-25T00:16:20.734Z,100485.69
2022-11-25T00:18:49.308Z,100479.34
2022-11-25T00:21:18.341Z,100485.41
2022-11-25T00:23:49.914Z,100479.94
2022-11-25T00:26:16.779Z,100478.09
2022-11-25T00:28:45.458Z,100472.47
2022-11-25T00:31:17.167Z,100469.53
2022-11-25T00:33:44.319Z,100463.22
2022-11-25T00:36:20.746Z,100473.31
2022-11-25T00:38:47.232Z,100464.31
2022-11-25T00:41:32.814Z,100463.19
2022-11-25T00:44:17.522Z,100467.16
2022-11-25T00:46:43.883Z,100455.88
2022-11-25T00:49:10.305Z,100457.97
2022-11-25T00:51:36.628Z,100465.44
2022-11-25T00:54:03.064Z,100459.50
2022-11-25T00:56:30.269Z,100465.97
2022-11-25T00:58:56.684Z,100454.69
2022-11-25T01:01:23.159Z,100459.44
2022-11-25T01:03:51.094Z,100457.88
2022-11-25T01:06:17.644Z,100461.66
2022-11-25T01:08:44.121Z,100450.38
2022-11-25T01:11:12.936Z,100446.25
2022-11-25T01:13:39.663Z,100445.84
2022-11-25T01:16:07.588Z,100449.88
2022-11-25T01:18:34.755Z,100446.75
2022-11-25T01:21:16.402Z,100451.66
2022-11-25T01:23:43.365Z,100448.69
2022-11-25T01:26:15.596Z,100435.88
2022-11-25T01:28:42.095Z,100440.06
2022-11-25T01:31:17.759Z,100436.13
2022-11-25T01:33:45.821Z,100431.50
2022-11-25T01:36:15.431Z,100440.22
2022-11-25T01:38:42.762Z,100435.53
2022-11-25T01:41:13.109Z,100429.91
2022-11-25T01:43:40.429Z,100437.78
2022-11-25T01:46:25.198Z,100434.97
2022-11-25T01:48:51.488Z,100425.94
2022-11-25T01:51:34.194Z,100426.78
2022-11-25T01:54:03.412Z,100424.94
2022-11-25T01:56:36.000Z,100421.44
2022-11-25T01:59:02.869Z,100435.81
2022-11-25T02:01:29.324Z,100427.91
2022-11-25T02:03:57.395Z,100420.91
2022-11-25T02:06:27.960Z,100420.91
2022-11-25T02:08:58.668Z,100416.38
2022-11-25T02:11:28.278Z,100416.56
2022-11-25T02:13:54.870Z,100426.25
2022-11-25T02:16:21.340Z,100426.25
2022-11-25T02:18:49.603Z,100426.25
2022-11-25T02:21:22.977Z,100441.28
2022-11-25T02:23:57.353Z,100423.25
2022-11-25T02:26:23.862Z,100426.63
2022-11-25T02:28:50.371Z,100429.13
2022-11-25T02:31:21.700Z,100427.03
2022-11-25T02:33:48.534Z,100435.75
2022-11-25T02:36:18.766Z,100419.41
2022-11-25T02:38:53.950Z,100421.75
2022-11-25T02:41:34.669Z,100415.25
2022-11-25T02:44:01.849Z,100420.44
2022-11-25T02:46:29.202Z,100410.63
2022-11-25T02:49:08.867Z,100414.97
2022-11-25T02:51:36.892Z,100413.94
2022-11-25T02:54:03.335Z,100408.47
2022-11-25T02:56:32.897Z,100399.44
2022-11-25T02:59:00.087Z,100408.00
2022-11-25T03:01:27.037Z,100403.50
2022-11-25T03:03:53.493Z,100397.84
2022-11-25T03:06:19.918Z,100404.72
2022-11-25T03:08:46.219Z,100411.59
2022-11-25T03:11:12.579Z,100396.22
2022-11-25T03:13:39.392Z,100403.94
2022-11-25T03:16:06.094Z,100394.06
2022-11-25T03:18:32.485Z,100395.59
2022-11-25T03:20:59.011Z,100399.13
2022-11-25T03:23:25.765Z,100413.19
2022-11-25T03:25:52.231Z,100398.84
2022-11-25T03:28:18.564Z,100401.34
2022-11-25T03:30:44.912Z,100398.53
2022-11-25T03:33:11.287Z,100400.19
2022-11-25T03:35:37.573Z,100399.19
2022-11-25T03:38:04.079Z,100399.03
2022-11-25T03:40:30.374Z,100403.38
2022-11-25T03:42:56.752Z,100412.28
2022-11-25T03:45:23.120Z,100410.25
2022-11-25T03:47:49.460Z,100407.44
2022-11-25T03:50:16.484Z,100404.63
2022-11-25T03:52:42.860Z,100415.16
2022-11-25T03:55:12.460Z,100415.84
2022-11-25T03:57:38.935Z,100414.69
2022-11-25T04:00:06.266Z,100412.84
2022-11-25T04:02:32.780Z,100417.19
2022-11-25T04:04:59.231Z,100418.72
2022-11-25T04:07:25.841Z,100415.06
2022-11-25T04:09:52.164Z,100418.59
2022-11-25T04:12:36.897Z,100421.94
2022-11-25T04:15:04.042Z,100421.94
2022-11-25T04:17:30.456Z,100428.97
2022-11-25T04:19:56.802Z,100426.16
2022-11-25T04:22:23.107Z,100422.47
2022-11-25T04:24:49.445Z,100434.00
2022-11-25T04:27:15.799Z,100434.88
2022-11-25T04:29:42.137Z,100436.41
2022-11-25T04:32:08.540Z,100436.41
2022-11-25T04:34:35.158Z,100437.06
2022-11-25T04:37:01.624Z,100428.88
2022-11-25T04:39:27.971Z,100435.06
2022-11-25T04:42:17.166Z,100437.63
2022-11-25T04:44:55.900Z,100430.41
2022-11-25T04:47:30.450Z,100434.44
2022-11-25T04:49:56.832Z,100442.47
2022-11-25T04:52:23.302Z,100434.44
2022-11-25T04:54:49.674Z,100431.09
2022-11-25T04:57:16.426Z,100437.28
2022-11-25T04:59:43.779Z,100441.81
2022-11-25T05:02:27.985Z,100447.69
2022-11-25T05:04:56.562Z,100445.84
2022-11-25T05:07:25.182Z,100444.69
2022-11-25T05:09:51.650Z,100451.56
2022-11-25T05:12:21.479Z,100457.63
2022-11-25T05:14:48.937Z,100464.63
2022-11-25T05:17:22.327Z,100467.00
2022-11-25T05:19:49.966Z,100463.34
2022-11-25T05:22:19.353Z,100472.06
2022-11-25T05:24:45.949Z,100464.03
2022-11-25T05:27:12.337Z,100461.19
2022-11-25T05:29:38.914Z,100457.66
2022-11-25T05:32:06.289Z,100458.50
2022-11-25T05:34:32.630Z,100452.31
2022-11-25T05:36:59.208Z,100453.16
2022-11-25T05:39:25.947Z,100451.31
2022-11-25T05:41:52.254Z,100448.63
2022-11-25T05:44:22.852Z,100447.66
2022-11-25T05:46:49.639Z,100449.31
2022-11-25T05:49:16.540Z,100454.66
2022-11-25T05:51:42.966Z,100456.50
2022-11-25T05:54:09.311Z,100463.53
2022-11-25T05:56:36.179Z,100456.50
2022-11-25T05:59:03.725Z,100460.03
2022-11-25T06:01:30.421Z,100454.66
2022-11-25T06:04:00.863Z,100455.50
2022-11-25T06:06:27.633Z,100455.69
2022-11-25T06:08:53.996Z,100458.34
2022-11-25T06:11:20.401Z,100466.41
2022-11-25T06:13:46.859Z,100463.03
2022-11-25T06:16:16.491Z,100456.00
2022-11-25T06:18:43.257Z,100449.94
2022-11-25T06:21:10.724Z,100453.59
2022-11-25T06:23:38.056Z,100451.94
2022-11-25T06:26:13.868Z,100466.34
2022-11-25T06:28:40.125Z,100473.22
2022-11-25T06:31:08.901Z,100482.09
2022-11-25T06:33:36.198Z,100486.75
2022-11-25T06:36:05.016Z,100481.56
2022-11-25T06:38:31.437Z,100494.97
2022-11-25T06:41:02.296Z,100509.19
2022-11-25T06:43:29.485Z,100514.53
2022-11-25T06:46:08.819Z,100514.38
2022-11-25T06:48:36.156Z,100517.88
2022-11-25T06:51:05.621Z,100523.09
2022-11-25T06:53:33.061Z,100522.97
2022-11-25T06:56:05.905Z,100518.25
2022-11-25T06:58:36.556Z,100520.94
2022-11-25T07:01:20.802Z,100534.03
2022-11-25T07:03:49.300Z,100531.19
2022-11-25T07:06:16.945Z,100532.03
2022-11-25T07:08:44.279Z,100528.38
2022-11-25T07:11:16.520Z,100542.28
2022-11-25T07:13:43.389Z,100547.63
2022-11-25T07:16:11.473Z,100550.00
2022-11-25T07:18:39.497Z,100555.22
2022-11-25T07:21:08.119Z,100559.56
2022-11-25T07:23:36.152Z,100567.47
2022-11-25T07:26:14.174Z,100570.81
2022-11-25T07:28:41.718Z,100564.31
2022-11-25T07:31:31.324Z,100564.97
2022-11-25T07:34:04.432Z,100571.03
2022-11-25T07:36:32.655Z,100578.09
2022-11-25T07:39:01.213Z,100584.28
2022-11-25T07:41:28.814Z,100587.66
2022-11-25T07:44:00.820Z,100593.84
2022-11-25T07:46:34.141Z,100594.38
2022-11-25T07:49:04.849Z,100600.56
2022-11-25T07:51:37.408Z,100600.25
2022-11-25T07:54:06.299Z,100603.63
2022-11-25T07:56:35.538Z,100603.47
2022-11-25T07:59:02.372Z,100605.00
2022-11-25T08:01:28.850Z,100597.47
2022-11-25T08:04:08.675Z,100597.84
2022-11-25T08:06:39.465Z,100596.69
2022-11-25T08:09:06.618Z,100606.25
2022-11-25T08:11:33.286Z,100606.78
2022-11-25T08:13:59.838Z,100616.34
2022-11-25T08:16:28.431Z,100615.91
2022-11-25T08:18:55.968Z,100617.44
2022-11-25T08:21:22.581Z,100617.94
2022-11-25T08:23:49.271Z,100617.66
2022-11-25T08:26:37.752Z,100621.69
2022-11-25T08:29:07.385Z,100624.06
2022-11-25T08:31:36.841Z,100628.44
2022-11-25T08:34:05.919Z,100627.44
2022-11-25T08:36:34.001Z,100627.09
2022-11-25T08:39:12.619Z,100635.84
2022-11-25T08:41:49.302Z,100642.72
2022-11-25T08:44:15.683Z,100640.03
2022-11-25T08:46:42.230Z,100642.59
2022-11-25T08:49:09.771Z,100644.25
2022-11-25T08:51:37.869Z,100644.09
2022-11-25T08:54:06.304Z,100649.28
2022-11-25T08:56:32.849Z,100643.94
2022-11-25T08:59:00.045Z,100655.34
2022-11-25T09:01:38.507Z,100665.75
2022-11-25T09:04:05.003Z,100660.25
2022-11-25T09:06:31.352Z,100657.38
2022-11-25T09:08:58.789Z,100660.75
2022-11-25T09:11:31.391Z,100666.81
2022-11-25T09:13:57.852Z,100654.91
2022-11-25T09:16:26.644Z,100660.97
2022-11-25T09:18:56.055Z,100664.31
2022-11-25T09:21:24.671Z,100671.22
2022-11-25T09:23:52.163Z,100666.53
2022-11-25T09:26:24.942Z,100676.94
2022-11-25T09:29:03.569Z,100682.84
2022-11-25T09:31:29.985Z,100682.66
2022-11-25T09:33:59.442Z,100692.09
2022-11-25T09:36:25.887Z,100694.47
2022-11-25T09:38:52.554Z,100686.91
2022-11-25T09:41:51.973Z,100696.00
2022-11-25T09:44:39.722Z,100698.91
2022-11-25T09:47:20.208Z,100698.25
2022-11-25T09:50:03.214Z,100701.28
2022-11-25T09:52:42.702Z,100696.09
2022-11-25T09:55:17.166Z,100701.69
2022-11-25T09:57:59.463Z,100698.50
2022-11-25T10:00:36.222Z,100697.84
2022-11-25T10:03:40.303Z,100700.69
2022-11-25T10:06:26.342Z,100705.25
2022-11-25T10:08:57.802Z,100696.72
2022-11-25T10:12:11.324Z,100700.25
2022-11-25T10:14:53.839Z,100712.06
2022-11-25T10:17:35.003Z,100717.94
2022-11-25T10:20:12.915Z,100719.78
2022-11-25T10:22:55.793Z,100729.06
2022-11-25T10:25:25.407Z,100735.78
2022-11-25T10:27:57.785Z,100733.44
2022-11-25T10:30:48.850Z,100736.47
2022-11-25T10:33:33.217Z,100735.13
2022-11-25T10:36:21.638Z,100744.19
2022-11-25T10:39:27.924Z,100746.38
2022-11-25T10:41:59.470Z,100742.03
2022-11-25T10:44:29.679Z,100745.03
2022-11-25T10:47:20.408Z,100731.75
2022-11-25T10:50:24.443Z,100752.28
2022-11-25T10:53:12.991Z,100747.88
2022-11-25T10:55:47.873Z,100747.22
2022-11-25T10:58:27.853Z,100755.41
2022-11-25T11:01:19.872Z,100750.22
2022-11-25T11:03:52.873Z,100757.59
2022-11-25T11:06:36.475Z,100756.88
2022-11-25T11:09:04.030Z,100761.78
2022-11-25T11:11:30.769Z,100761.94
2022-11-25T11:14:29.829Z,100759.22
2022-11-25T11:16:57.636Z,100764.75
2022-11-25T11:19:31.099Z,100766.59
2022-11-25T11:22:15.528Z,100759.34
2022-11-25T11:24:42.530Z,100766.56
2022-11-25T11:27:23.933Z,100768.34
2022-11-25T11:30:08.611Z,100764.97
2022-11-25T11:32:35.110Z,100767.31
2022-11-25T11:35:04.119Z,100772.16
2022-11-25T11:37:42.812Z,100770.78
2022-11-25T11:40:15.220Z,100774.81
2022-11-25T11:43:06.046Z,100776.31
2022-11-25T11:46:00.692Z,100785.91
2022-11-25T11:48:38.876Z,100784.06
2022-11-25T11:51:14.026Z,100787.59
2022-11-25T11:53:58.752Z,100780.53
2022-11-25T11:56:37.574Z,100784.88
2022-11-25T11:59:32.349Z,100786.75
2022-11-25T12:02:01.657Z,100792.97
2022-11-25T12:04:36.417Z,100798.03
2022-11-25T12:07:12.922Z,100792.25
2022-11-25T12:09:50.763Z,100789.03
2022-11-25T12:12:19.479Z,100790.38
2022-11-25T12:14:50.979Z,100799.63
2022-11-25T12:17:23.245Z,100806.31
2022-11-25T12:19:56.759Z,100807.66
2022-11-25T12:22:43.437Z,100815.38
2022-11-25T12:25:35.437Z,100809.63
2022-11-25T12:28:08.960Z,100809.47
2022-11-25T12:30:44.810Z,100810.28
2022-11-25T12:33:25.891Z,100809.31
2022-11-25T12:36:05.786Z,100809.09
2022-11-25T12:38:46.120Z,100814.50
2022-11-25T12:41:26.805Z,100820.72
2022-11-25T12:44:13.153Z,100826.13
2022-11-25T12:46:48.899Z,100825.13
2022-11-25T12:49:40.803Z,100822.06
2022-11-25T12:52:32.991Z,100829.97
2022-11-25T12:55:18.820Z,100837.91
2022-11-25T12:57:51.218Z,100837.72
2022-11-25T13:03:33.582Z,100847.03
2022-11-25T13:06:28.820Z,100850.56
2022-11-25T13:09:19.488Z,100851.56
2022-11-25T13:12:02.823Z,100850.06
2022-11-25T13:14:57.829Z,100868.31
2022-11-25T13:17:25.827Z,100871.38
2022-11-25T13:20:29.307Z,100874.22
2022-11-25T13:23:05.754Z,100879.78
2022-11-25T13:25:32.739Z,100879.16
2022-11-25T13:28:01.346Z,100885.19
2022-11-25T13:30:38.086Z,100885.69
2022-11-25T13:33:13.320Z,100882.44
2022-11-25T13:35:42.884Z,100890.22
2022-11-25T13:38:34.205Z,100890.50
2022-11-25T13:41:25.246Z,100892.84
2022-11-25T13:44:01.978Z,100892.50
2022-11-25T13:46:39.743Z,100889.78
2022-11-25T13:49:21.117Z,100891.47
2022-11-25T13:51:53.495Z,100903.97
2022-11-25T13:54:24.260Z,100902.25
2022-11-25T13:57:17.875Z,100906.00
2022-11-25T13:59:44.112Z,100916.13
2022-11-25T14:02:28.901Z,100917.97
2022-11-25T14:05:04.851Z,100926.44
2022-11-25T14:07:40.076Z,100928.47
2022-11-25T14:10:47.725Z,100925.09
2022-11-25T14:13:28.942Z,100940.63
2022-11-25T14:16:25.406Z,100943.69
2022-11-25T14:19:49.958Z,100951.97
2022-11-25T14:22:31.128Z,100948.94
2022-11-25T14:25:16.642Z,100953.84
2022-11-25T14:27:48.258Z,100955.22
2022-11-25T14:30:16.323Z,100952.00
2022-11-25T14:33:08.156Z,100961.13
2022-11-25T14:35:45.619Z,100965.00
2022-11-25T14:38:19.506Z,100964.53
2022-11-25T14:41:03.614Z,100969.25
2022-11-25T14:43:34.648Z,100976.88
2022-11-25T14:46:21.192Z,100977.84
2022-11-25T14:49:07.638Z,100972.66
2022-11-25T14:51:41.319Z,100975.66
2022-11-25T14:54:08.965Z,100979.41
2022-11-25T14:56:37.167Z,100981.41
2022-11-25T14:59:04.177Z,100981.75
2022-11-25T15:01:33.330Z,100981.75
2022-11-25T15:04:07.269Z,100990.03
2022-11-25T15:06:36.362Z,100994.09
2022-11-25T15:09:03.985Z,100997.28
2022-11-25T15:11:33.757Z,101005.88
2022-11-25T15:14:05.538Z,101006.56
2022-11-25T15:16:39.457Z,101010.66
2022-11-25T15:19:15.659Z,101014.84
2022-11-25T15:22:14.643Z,101018.22
2022-11-25T15:24:48.934Z,101023.09
2022-11-25T15:27:25.318Z,101029.69
2022-11-25T15:29:53.653Z,101035.41
2022-11-25T15:32:25.282Z,101035.91
2022-11-25T15:34:53.494Z,101031.84
2022-11-25T15:37:19.934Z,101036.75
2022-11-25T15:39:46.945Z,101040.75
2022-11-25T15:42:19.737Z,101051.00
2022-11-25T15:45:11.368Z,101051.69
2022-11-25T15:47:37.837Z,101052.16
2022-11-25T15:50:17.566Z,101057.22
2022-11-25T15:52:48.329Z,101067.47
2022-11-25T15:55:34.858Z,101069.63
2022-11-25T15:58:23.507Z,101078.06
2022-11-25T16:01:18.016Z,101090.84
2022-11-25T16:03:45.809Z,101092.88
2022-11-25T16:06:26.714Z,101092.88
2022-11-25T16:09:01.285Z,101095.72
2022-11-25T16:11:33.655Z,101103.94
2022-11-25T16:14:26.781Z,101110.00
2022-11-25T16:17:05.918Z,101118.09
2022-11-25T16:19:38.734Z,101115.25
2022-11-25T16:22:05.733Z,101111.88
2022-11-25T16:24:41.578Z,101111.72
2022-11-25T16:27:23.689Z,101111.72
2022-11-25T16:29:53.394Z,101118.09
2022-11-25T16:32:28.536Z,101122.63
2022-11-25T16:34:56.781Z,101126.34
2022-11-25T16:37:24.126Z,101133.56
2022-11-25T16:39:50.494Z,101133.75
2022-11-25T16:42:21.526Z,101136.44
2022-11-25T16:44:50.452Z,101143.81
2022-11-25T16:47:18.699Z,101148.53
2022-11-25T16:49:46.352Z,101149.69
2022-11-25T16:52:13.318Z,101155.41
2022-11-25T16:54:39.726Z,101146.81
2022-11-25T16:57:07.583Z,101152.66
2022-11-25T16:59:38.026Z,101154.84
2022-11-25T17:02:18.147Z,101167.09
2022-11-25T17:04:45.203Z,101166.03
2022-11-25T17:10:00.077Z,101176.19
2022-11-25T17:12:30.777Z,101177.69
2022-11-25T17:14:59.770Z,101184.84
2022-11-25T17:17:27.169Z,101184.63
2022-11-25T17:19:53.890Z,101185.41
2022-11-25T17:22:23.285Z,101192.41
2022-11-25T17:24:49.746Z,101196.72
2022-11-25T17:27:21.830Z,101211.63
2022-11-25T17:29:48.945Z,101217.78
2022-11-25T17:32:16.470Z,101220.75
2022-11-25T17:34:42.921Z,101226.56
2022-11-25T17:37:20.735Z,101223.19
2022-11-25T17:39:47.097Z,101230.56
2022-11-25T17:42:15.913Z,101241.31
2022-11-25T17:44:45.885Z,101236.94
2022-11-25T17:47:16.895Z,101243.13
2022-11-25T17:49:43.229Z,101244.00
2022-11-25T17:52:09.585Z,101252.91
2022-11-25T17:54:36.318Z,101262.66
2022-11-25T17:57:04.782Z,101271.56
2022-11-25T17:59:33.535Z,101272.41
2022-11-25T18:02:00.089Z,101272.41
2022-11-25T18:04:30.213Z,101278.66
2022-11-25T18:06:56.602Z,101283.00
2022-11-25T18:09:23.458Z,101283.84
2022-11-25T18:11:53.187Z,101290.78
2022-11-25T18:14:28.264Z,101284.41
2022-11-25T18:16:55.344Z,101280.72
2022-11-25T18:19:22.194Z,101286.94
2022-11-25T18:21:48.542Z,101295.00
2022-11-25T18:24:14.876Z,101298.69
2022-11-25T18:26:47.154Z,101313.13
2022-11-25T18:29:16.302Z,101310.91
2022-11-25T18:31:44.632Z,101317.72
2022-11-25T18:34:17.910Z,101322.53
2022-11-25T18:36:44.802Z,101328.66
2022-11-25T18:39:12.006Z,101323.88
2022-11-25T18:41:40.311Z,101327.00
2022-11-25T18:44:15.547Z,101332.81
2022-11-25T18:46:41.902Z,101328.59
2022-11-25T18:49:12.965Z,101329.59
2022-11-25T18:51:40.152Z,101334.25
2022-11-25T18:54:07.984Z,101328.34
2022-11-25T18:56:36.045Z,101344.75
2022-11-25T18:59:03.388Z,101347.88
2022-11-25T19:01:29.947Z,101343.78
2022-11-25T19:03:56.706Z,101361.19
2022-11-25T19:06:23.469Z,101354.56
2022-11-25T19:08:52.412Z,101363.75
2022-11-25T19:11:30.030Z,101369.41
2022-11-25T19:14:02.726Z,101375.94
2022-11-25T19:16:29.155Z,101376.19
2022-11-25T19:18:55.621Z,101378.47
2022-11-25T19:21:21.956Z,101384.28
2022-11-25T19:23:48.801Z,101384.69
2022-11-25T19:26:19.893Z,101387.81
2022-11-25T19:28:49.610Z,101393.75
2022-11-25T19:31:18.659Z,101405.06
2022-11-25T19:33:48.764Z,101400.94
2022-11-25T19:36:24.374Z,101411.41
2022-11-25T19:38:51.583Z,101412.94
2022-11-25T19:41:18.296Z,101414.63
2022-11-25T19:43:44.671Z,101418.84
2022-11-25T19:46:33.055Z,101433.78
2022-11-25T19:49:04.829Z,101432.59
2022-11-25T19:51:34.264Z,101444.88
2022-11-25T19:54:00.580Z,101440.06
2022-11-25T19:56:27.212Z,101448.66
2022-11-25T19:58:54.632Z,101455.41
2022-11-25T20:01:25.423Z,101460.44
2022-11-25T20:03:52.000Z,101466.34
2022-11-25T20:06:19.466Z,101471.97
2022-11-25T20:08:46.289Z,101475.88
2022-11-25T20:11:13.901Z,101477.84
2022-11-25T20:13:41.265Z,101478.13
2022-11-25T20:16:26.579Z,101481.06
2022-11-25T20:18:53.467Z,101479.78
2022-11-25T20:21:36.414Z,101493.56
2022-11-25T20:24:05.261Z,101497.59
2022-11-25T20:26:35.987Z,101498.00
2022-11-25T20:29:10.433Z,101498.53
2022-11-25T20:31:36.813Z,101507.94
2022-11-25T20:34:03.224Z,101514.66
2022-11-25T20:36:32.060Z,101516.88
2022-11-25T20:39:00.129Z,101523.72
2022-11-25T20:41:28.309Z,101534.94
2022-11-25T20:43:56.200Z,101531.06
2022-11-25T20:46:26.894Z,101527.19
2022-11-25T20:48:55.799Z,101543.75
2022-11-25T20:51:23.798Z,101540.88
2022-11-25T20:53:53.085Z,101548.41
2022-11-25T20:56:21.835Z,101550.72
2022-11-25T20:58:48.475Z,101561.81
2022-11-25T21:01:15.482Z,101553.31
2022-11-25T21:03:42.591Z,101558.19
2022-11-25T21:06:27.586Z,101563.78
2022-11-25T21:08:55.603Z,101563.31
2022-11-25T21:11:22.801Z,101569.00
2022-11-25T21:13:50.171Z,101570.09
2022-11-25T21:16:16.546Z,101567.69
2022-11-25T21:18:43.177Z,101576.88
2022-11-25T21:21:18.696Z,101577.13
2022-11-25T21:23:46.995Z,101579.19
2022-11-25T21:26:26.520Z,101585.63
2022-11-25T21:28:54.483Z,101592.19
2022-11-25T21:31:24.390Z,101599.69
2022-11-25T21:33:56.334Z,101598.25
2022-11-25T21:36:27.440Z,101609.19
2022-11-25T21:39:23.272Z,101605.03
2022-11-25T21:41:49.878Z,101613.31
2022-11-25T21:44:25.679Z,101613.53
2022-11-25T21:46:53.663Z,101623.25
2022-11-25T21:49:20.329Z,101625.31
2022-11-25T21:51:46.727Z,101623.97
2022-11-25T21:54:13.039Z,101633.19
2022-11-25T21:56:39.938Z,101636.09
2022-11-25T21:59:07.960Z,101641.66
2022-11-25T22:01:34.346Z,101639.19
2022-11-25T22:04:00.708Z,101640.41
2022-11-25T22:06:29.165Z,101634.47
2022-11-25T22:08:56.618Z,101642.81
2022-11-25T22:11:34.078Z,101650.94
2022-11-25T22:14:04.621Z,101644.97
2022-11-25T22:16:34.434Z,101646.91
2022-11-25T22:19:01.315Z,101653.47
2022-11-25T22:21:27.676Z,101653.66
2022-11-25T22:23:53.990Z,101650.28
2022-11-25T22:26:29.866Z,101654.88
2022-11-25T22:28:57.093Z,101655.94
2022-11-25T22:31:24.515Z,101664.91
2022-11-25T22:33:51.193Z,101674.00
2022-11-25T22:36:39.852Z,101666.97
2022-11-25T22:39:14.829Z,101670.72
2022-11-25T22:41:44.485Z,101663.78
2022-11-25T22:44:20.775Z,101674.69
2022-11-25T22:46:48.418Z,101675.84
2022-11-25T22:49:33.329Z,101686.75
2022-11-25T22:52:00.180Z,101692.31
2022-11-25T22:54:26.530Z,101703.22
2022-11-25T22:56:53.062Z,101698.00
2022-11-25T22:59:19.446Z,101709.53
2022-11-25T23:01:46.278Z,101713.06
2022-11-25T23:04:16.948Z,101717.31
2022-11-25T23:06:44.063Z,101719.00
2022-11-25T23:09:15.342Z,101717.94
2022-11-25T23:11:42.097Z,101729.25
2022-11-25T23:14:08.754Z,101732.66
2022-11-25T23:16:35.119Z,101734.16
2022-11-25T23:19:04.309Z,101731.25
2022-11-25T23:21:31.045Z,101740.72
2022-11-25T23:23:57.536Z,101736.88
2022-11-25T23:26:23.991Z,101736.66
2022-11-25T23:28:50.343Z,101732.81
2022-11-25T23:31:16.919Z,101742.28
2022-11-25T23:33:45.997Z,101742.81
2022-11-25T23:36:17.483Z,101745.16
2022-11-25T23:38:56.264Z,101746.50
2022-11-25T23:41:30.927Z,101741.69
2022-11-25T23:44:01.931Z,101747.53
2022-11-25T23:46:34.145Z,101748.03
2022-11-25T23:49:02.521Z,101749.41
2022-11-25T23:51:30.148Z,101747.34
2022-11-25T23:53:58.100Z,101753.19
2022-11-25T23:56:26.837Z,101759.06
2022-11-25T23:58:53.184Z,101757.88
